Alta Loma, CA (91701)

12:57 AM PST on December 25, 2014 (GMT -0800)
Amethyst at Manzanita | Change Station
CLOSE
Current Station
Personal Weather Station
Location: Alta Loma, CA
Elevation: 1775 ft
Nearby Weather Stations

Elev 1775 ft 34.15 °N, 117.60 °W | Updated 3 seconds ago

Clear
Clear
52.2 °F
Feels Like 52.2 °F
N
1.0
Wind Variable Wind from NW
Gusts 2.0 mph

Today
High -- | Low -- °F
--% Chance of Precip.
Yesterday
High -- | Low -- °F
Precip. -- in
6:54 AM 4:47 PM
Waxing Crescent, 14% visible
Pressure 29.78 in
Visibility 8.0 miles
Clouds Scattered Clouds 2500 ft
Scattered Clouds 25000 ft
Dew Point 46 °F
Humidity 80%
Rainfall 0.00 in
Snow Depth Not available.
UV 0 out of 12
Pollen 6.00 out of 12
Air Quality Not available.
Flu Activity Not available.
METAR KONT 250853Z 29003KT 8SM SCT025 SCT250 12/10 A2979 RMK AO2 SLP082 T01220100 58021

More Conditions Fewer Conditions

Pressure 29.78 in
Visibility 8.0 miles
Clouds Scattered Clouds 2500 ft
Scattered Clouds 25000 ft
Dew Point 46 °F
Humidity 80%
Rainfall 0.00 in
Snow Depth Not available.
UV 0 out of 12
Pollen 6.00 out of 12
Air Quality Not available.
Flu Activity Not available.
METAR KONT 250853Z 29003KT 8SM SCT025 SCT250 12/10 A2979 RMK AO2 SLP082 T01220100 58021

More Conditions Fewer Conditions

10-Day Weather Forecast

Almanac

Astronomy

Dec. 25, 2014 Rise Set
Actual Time
Civil Twilight
Nautical Twilight
Astronomical Twilight
Moon
Length of Visible Light
Length of Day
Tomorrow will be .
, % of the Moon is Illuminated

Today's Extremes

State Highs State Lows

Community

WunderPhotos

Upload Photos

1,780,250 photos uploaded!

WunderBlogs® & News

Nearby

Air Quality

  Air Quality AQ Index Pollutant
Not available.

Snow Depth

Station Depth Elevation

Earthquake Activity

City Distance Mag. Time & Date
Minimum magnitude displayed is 2.5.

Coastal Water Temperatures

Place Temperature

Nearby Weather Stations